sensor_id;sensor_type;location;lat;lon;timestamp;pressure;altitude;pressure_sealevel;temperature;humidity
16016;BME280;8112;53.592;10.184;2024-01-11T00:02:25;103038.75;;;-1.80;100.00
16016;BME280;8112;53.592;10.184;2024-01-11T00:07:28;103026.75;;;-1.77;100.00
16016;BME280;8112;53.592;10.184;2024-01-11T00:12:30;103015.19;;;-1.61;100.00
16016;BME280;8112;53.592;10.184;2024-01-11T00:17:32;103014.66;;;-1.47;100.00
16016;BME280;8112;53.592;10.184;2024-01-11T00:22:35;103006.66;;;-1.56;100.00
16016;BME280;8112;53.592;10.184;2024-01-11T00:27:36;102991.50;;;-1.44;100.00
16016;BME280;8112;53.592;10.184;2024-01-11T00:32:38;102999.59;;;-1.64;100.00
16016;BME280;8112;53.592;10.184;2024-01-11T00:37:41;103001.50;;;-1.56;100.00
16016;BME280;8112;53.592;10.184;2024-01-11T00:42:43;102987.06;;;-1.48;100.00
16016;BME280;8112;53.592;10.184;2024-01-11T00:47:44;102989.03;;;-1.70;100.00
16016;BME280;8112;53.592;10.184;2024-01-11T00:52:47;102970.19;;;-1.96;100.00
16016;BME280;8112;53.592;10.184;2024-01-11T00:57:49;102957.06;;;-1.74;100.00
16016;BME280;8112;53.592;10.184;2024-01-11T01:02:51;102950.97;;;-1.76;100.00
16016;BME280;8112;53.592;10.184;2024-01-11T01:07:54;102946.50;;;-1.81;100.00
16016;BME280;8112;53.592;10.184;2024-01-11T01:12:55;102941.53;;;-2.04;100.00
16016;BME280;8112;53.592;10.184;2024-01-11T01:17:57;102934.38;;;-1.84;100.00
16016;BME280;8112;53.592;10.184;2024-01-11T01:23:01;102939.25;;;-1.93;100.00
16016;BME280;8112;53.592;10.184;2024-01-11T01:28:03;102955.28;;;-2.05;100.00
16016;BME280;8112;53.592;10.184;2024-01-11T01:33:05;102960.97;;;-2.17;100.00
16016;BME280;8112;53.592;10.184;2024-01-11T01:38:08;102947.75;;;-1.97;100.00
16016;BME280;8112;53.592;10.184;2024-01-11T01:43:09;102936.66;;;-1.95;100.00
16016;BME280;8112;53.592;10.184;2024-01-11T01:48:13;102951.78;;;-2.07;100.00
16016;BME280;8112;53.592;10.184;2024-01-11T01:53:17;102953.38;;;-2.12;100.00
16016;BME280;8112;53.592;10.184;2024-01-11T01:58:20;102974.41;;;-2.00;100.00
16016;BME280;8112;53.592;10.184;2024-01-11T02:03:23;102986.81;;;-2.17;100.00
16016;BME280;8112;53.592;10.184;2024-01-11T02:08:27;103000.97;;;-2.33;100.00
16016;BME280;8112;53.592;10.184;2024-01-11T02:13:29;102990.53;;;-2.36;100.00
16016;BME280;8112;53.592;10.184;2024-01-11T02:18:33;102991.94;;;-2.19;100.00
16016;BME280;8112;53.592;10.184;2024-01-11T02:23:36;103002.28;;;-2.19;100.00
16016;BME280;8112;53.592;10.184;2024-01-11T02:28:46;103014.22;;;-2.22;100.00
16016;BME280;8112;53.592;10.184;2024-01-11T02:33:48;103036.66;;;-2.20;100.00
16016;BME280;8112;53.592;10.184;2024-01-11T02:38:51;103015.66;;;-2.31;100.00
16016;BME280;8112;53.592;10.184;2024-01-11T02:43:55;102996.91;;;-2.25;100.00
16016;BME280;8112;53.592;10.184;2024-01-11T02:48:57;103007.16;;;-2.28;100.00
16016;BME280;8112;53.592;10.184;2024-01-11T02:53:59;103008.66;;;-2.35;100.00
16016;BME280;8112;53.592;10.184;2024-01-11T02:59:02;103002.63;;;-2.35;100.00
16016;BME280;8112;53.592;10.184;2024-01-11T03:04:05;102982.22;;;-2.27;100.00
16016;BME280;8112;53.592;10.184;2024-01-11T03:09:07;103007.47;;;-2.17;100.00
16016;BME280;8112;53.592;10.184;2024-01-11T03:14:10;103012.56;;;-2.20;100.00
16016;BME280;8112;53.592;10.184;2024-01-11T03:19:11;103001.38;;;-2.19;100.00
16016;BME280;8112;53.592;10.184;2024-01-11T03:24:13;103001.31;;;-2.21;100.00
16016;BME280;8112;53.592;10.184;2024-01-11T03:29:16;103001.31;;;-2.21;100.00
16016;BME280;8112;53.592;10.184;2024-01-11T03:34:18;103000.41;;;-2.23;100.00
16016;BME280;8112;53.592;10.184;2024-01-11T03:39:19;103014.16;;;-2.24;100.00
16016;BME280;8112;53.592;10.184;2024-01-11T03:44:23;103027.06;;;-2.24;100.00
16016;BME280;8112;53.592;10.184;2024-01-11T03:49:24;103034.88;;;-2.22;100.00
16016;BME280;8112;53.592;10.184;2024-01-11T03:54:26;103018.41;;;-2.26;100.00
16016;BME280;8112;53.592;10.184;2024-01-11T03:59:29;103002.38;;;-2.16;100.00
16016;BME280;8112;53.592;10.184;2024-01-11T04:04:31;102991.34;;;-2.10;100.00
16016;BME280;8112;53.592;10.184;2024-01-11T04:09:32;102976.78;;;-2.06;100.00
16016;BME280;8112;53.592;10.184;2024-01-11T04:14:38;102963.66;;;-2.14;100.00
16016;BME280;8112;53.592;10.184;2024-01-11T04:19:41;102973.97;;;-2.14;100.00
16016;BME280;8112;53.592;10.184;2024-01-11T04:24:43;102952.69;;;-2.07;100.00
16016;BME280;8112;53.592;10.184;2024-01-11T04:29:46;102951.88;;;-2.04;100.00
16016;BME280;8112;53.592;10.184;2024-01-11T04:34:47;102935.44;;;-2.06;100.00
16016;BME280;8112;53.592;10.184;2024-01-11T04:39:49;102959.84;;;-1.96;100.00
16016;BME280;8112;53.592;10.184;2024-01-11T04:44:52;102946.63;;;-2.07;100.00
16016;BME280;8112;53.592;10.184;2024-01-11T04:49:54;102920.22;;;-1.97;100.00
16016;BME280;8112;53.592;10.184;2024-01-11T04:54:55;102945.03;;;-2.02;100.00
16016;BME280;8112;53.592;10.184;2024-01-11T04:59:58;102966.19;;;-2.16;100.00
16016;BME280;8112;53.592;10.184;2024-01-11T05:05:00;102962.63;;;-2.19;100.00
16016;BME280;8112;53.592;10.184;2024-01-11T05:10:02;102946.25;;;-2.20;100.00
16016;BME280;8112;53.592;10.184;2024-01-11T05:15:06;102933.53;;;-2.13;100.00
16016;BME280;8112;53.592;10.184;2024-01-11T05:20:09;102940.38;;;-2.14;100.00
16016;BME280;8112;53.592;10.184;2024-01-11T05:25:11;102958.25;;;-2.22;100.00
16016;BME280;8112;53.592;10.184;2024-01-11T05:30:14;102974.56;;;-2.23;100.00
16016;BME280;8112;53.592;10.184;2024-01-11T05:35:16;102964.22;;;-2.24;100.00
16016;BME280;8112;53.592;10.184;2024-01-11T05:40:17;102973.66;;;-2.25;100.00
16016;BME280;8112;53.592;10.184;2024-01-11T05:45:20;102966.09;;;-2.19;100.00
16016;BME280;8112;53.592;10.184;2024-01-11T05:50:22;102948.81;;;-2.21;100.00
16016;BME280;8112;53.592;10.184;2024-01-11T05:55:25;102944.50;;;-2.21;100.00
16016;BME280;8112;53.592;10.184;2024-01-11T06:00:28;102929.19;;;-2.15;100.00
16016;BME280;8112;53.592;10.184;2024-01-11T06:05:29;102936.03;;;-2.17;100.00
16016;BME280;8112;53.592;10.184;2024-01-11T06:10:31;102931.19;;;-2.04;100.00
16016;BME280;8112;53.592;10.184;2024-01-11T06:15:34;102945.78;;;-2.06;100.00
16016;BME280;8112;53.592;10.184;2024-01-11T06:20:36;102946.81;;;-2.01;100.00
16016;BME280;8112;53.592;10.184;2024-01-11T06:25:37;102953.50;;;-2.08;100.00
16016;BME280;8112;53.592;10.184;2024-01-11T06:30:40;102946.75;;;-2.03;100.00
16016;BME280;8112;53.592;10.184;2024-01-11T06:35:43;102946.69;;;-2.04;100.00
16016;BME280;8112;53.592;10.184;2024-01-11T06:40:45;102958.78;;;-2.03;100.00
16016;BME280;8112;53.592;10.184;2024-01-11T06:45:48;102955.28;;;-2.05;100.00
16016;BME280;8112;53.592;10.184;2024-01-11T06:50:50;102955.28;;;-2.05;100.00
16016;BME280;8112;53.592;10.184;2024-01-11T06:55:52;102967.34;;;-2.06;100.00
16016;BME280;8112;53.592;10.184;2024-01-11T07:00:55;102962.50;;;-1.95;100.00
16016;BME280;8112;53.592;10.184;2024-01-11T07:05:56;102956.56;;;-1.91;100.00
16016;BME280;8112;53.592;10.184;2024-01-11T07:10:58;102986.72;;;-1.91;100.00
16016;BME280;8112;53.592;10.184;2024-01-11T07:16:03;102985.00;;;-1.91;100.00
16016;BME280;8112;53.592;10.184;2024-01-11T07:21:05;102991.63;;;-2.01;100.00
16016;BME280;8112;53.592;10.184;2024-01-11T07:26:06;102986.00;;;-1.86;100.00
16016;BME280;8112;53.592;10.184;2024-01-11T07:31:10;102989.72;;;-1.77;100.00
16016;BME280;8112;53.592;10.184;2024-01-11T07:36:11;102987.25;;;-1.73;100.00
16016;BME280;8112;53.592;10.184;2024-01-11T07:41:14;102978.69;;;-1.70;100.00
16016;BME280;8112;53.592;10.184;2024-01-11T07:46:17;102992.38;;;-1.74;100.00
16016;BME280;8112;53.592;10.184;2024-01-11T07:51:18;102991.72;;;-1.67;100.00
16016;BME280;8112;53.592;10.184;2024-01-11T07:56:20;102997.38;;;-1.50;100.00
16016;BME280;8112;53.592;10.184;2024-01-11T08:01:24;102999.97;;;-1.48;100.00
16016;BME280;8112;53.592;10.184;2024-01-11T08:06:25;103000.78;;;-1.51;100.00
16016;BME280;8112;53.592;10.184;2024-01-11T08:11:27;102993.06;;;-1.49;100.00
16016;BME280;8112;53.592;10.184;2024-01-11T08:16:30;102972.78;;;-1.34;100.00
16016;BME280;8112;53.592;10.184;2024-01-11T08:21:32;102983.56;;;-1.18;100.00
16016;BME280;8112;53.592;10.184;2024-01-11T08:26:34;102987.38;;;-1.04;100.00
16016;BME280;8112;53.592;10.184;2024-01-11T08:31:37;102991.34;;;-0.83;100.00
16016;BME280;8112;53.592;10.184;2024-01-11T08:36:38;102989.81;;;-0.75;100.00
16016;BME280;8112;53.592;10.184;2024-01-11T08:41:40;102983.13;;;-0.66;100.00
16016;BME280;8112;53.592;10.184;2024-01-11T08:46:43;102975.63;;;-0.55;100.00
16016;BME280;8112;53.592;10.184;2024-01-11T08:51:45;102980.03;;;-0.51;100.00
16016;BME280;8112;53.592;10.184;2024-01-11T08:56:48;102969.41;;;-0.62;100.00
16016;BME280;8112;53.592;10.184;2024-01-11T09:01:51;102959.41;;;-0.47;100.00
16016;BME280;8112;53.592;10.184;2024-01-11T09:06:53;102966.34;;;-0.46;100.00
16016;BME280;8112;53.592;10.184;2024-01-11T09:11:56;102950.06;;;-0.40;100.00
16016;BME280;8112;53.592;10.184;2024-01-11T09:16:59;102943.59;;;-0.19;100.00
16016;BME280;8112;53.592;10.184;2024-01-11T09:22:01;102946.69;;;0.04;100.00
16016;BME280;8112;53.592;10.184;2024-01-11T09:27:03;102939.91;;;0.11;100.00
16016;BME280;8112;53.592;10.184;2024-01-11T09:32:06;102941.81;;;0.20;100.00
16016;BME280;8112;53.592;10.184;2024-01-11T09:37:08;102943.63;;;0.24;100.00
16016;BME280;8112;53.592;10.184;2024-01-11T09:42:10;102927.53;;;-0.01;100.00
16016;BME280;8112;53.592;10.184;2024-01-11T09:47:15;102927.00;;;0.14;100.00
16016;BME280;8112;53.592;10.184;2024-01-11T09:52:19;102933.56;;;0.39;100.00
16016;BME280;8112;53.592;10.184;2024-01-11T09:57:24;102921.44;;;0.38;100.00
16016;BME280;8112;53.592;10.184;2024-01-11T10:02:29;102911.66;;;0.25;100.00
16016;BME280;8112;53.592;10.184;2024-01-11T10:07:32;102902.19;;;0.27;100.00
16016;BME280;8112;53.592;10.184;2024-01-11T10:12:34;102898.84;;;0.34;100.00
16016;BME280;8112;53.592;10.184;2024-01-11T10:17:41;102903.81;;;0.22;100.00
16016;BME280;8112;53.592;10.184;2024-01-11T10:22:43;102898.94;;;0.39;100.00
16016;BME280;8112;53.592;10.184;2024-01-11T10:27:45;102901.88;;;0.57;100.00
16016;BME280;8112;53.592;10.184;2024-01-11T10:32:48;102912.56;;;0.75;100.00
16016;BME280;8112;53.592;10.184;2024-01-11T10:37:51;102919.72;;;0.91;100.00
16016;BME280;8112;53.592;10.184;2024-01-11T10:42:58;102926.63;;;0.89;100.00
16016;BME280;8112;53.592;10.184;2024-01-11T10:48:06;102952.69;;;0.94;100.00
16016;BME280;8112;53.592;10.184;2024-01-11T10:53:12;102951.47;;;0.73;100.00
16016;BME280;8112;53.592;10.184;2024-01-11T10:58:18;102935.88;;;0.73;100.00
16016;BME280;8112;53.592;10.184;2024-01-11T11:03:23;102938.53;;;0.75;100.00
16016;BME280;8112;53.592;10.184;2024-01-11T11:08:27;102927.16;;;0.69;100.00
16016;BME280;8112;53.592;10.184;2024-01-11T11:13:29;102926.34;;;0.72;100.00
16016;BME280;8112;53.592;10.184;2024-01-11T11:18:32;102913.34;;;0.70;100.00
16016;BME280;8112;53.592;10.184;2024-01-11T11:23:37;102897.88;;;0.78;100.00
16016;BME280;8112;53.592;10.184;2024-01-11T11:28:39;102898.88;;;0.83;100.00
16016;BME280;8112;53.592;10.184;2024-01-11T11:33:42;102894.69;;;0.93;100.00
16016;BME280;8112;53.592;10.184;2024-01-11T11:38:44;102897.22;;;0.89;100.00
16016;BME280;8112;53.592;10.184;2024-01-11T11:43:47;102898.97;;;0.91;100.00
16016;BME280;8112;53.592;10.184;2024-01-11T11:48:53;102913.56;;;0.83;100.00
16016;BME280;8112;53.592;10.184;2024-01-11T11:53:55;102891.00;;;0.80;100.00
16016;BME280;8112;53.592;10.184;2024-01-11T11:58:59;102880.75;;;0.88;100.00
16016;BME280;8112;53.592;10.184;2024-01-11T12:04:04;102871.34;;;0.95;100.00
16016;BME280;8112;53.592;10.184;2024-01-11T12:09:06;102864.44;;;0.97;100.00
16016;BME280;8112;53.592;10.184;2024-01-11T12:14:09;102864.41;;;0.94;100.00
16016;BME280;8112;53.592;10.184;2024-01-11T12:19:12;102842.06;;;1.07;100.00
16016;BME280;8112;53.592;10.184;2024-01-11T12:24:15;102843.72;;;1.00;100.00
16016;BME280;8112;53.592;10.184;2024-01-11T12:29:17;102842.22;;;1.18;100.00
16016;BME280;8112;53.592;10.184;2024-01-11T12:34:21;102851.16;;;1.37;100.00
16016;BME280;8112;53.592;10.184;2024-01-11T12:39:24;102855.66;;;1.49;100.00
16016;BME280;8112;53.592;10.184;2024-01-11T12:44:26;102854.91;;;1.56;100.00
16016;BME280;8112;53.592;10.184;2024-01-11T12:49:29;102866.09;;;1.50;100.00
16016;BME280;8112;53.592;10.184;2024-01-11T12:54:32;102857.41;;;1.48;100.00
16016;BME280;8112;53.592;10.184;2024-01-11T12:59:34;102856.69;;;1.60;100.00
16016;BME280;8112;53.592;10.184;2024-01-11T13:04:38;102843.69;;;1.60;100.00
16016;BME280;8112;53.592;10.184;2024-01-11T13:09:39;102829.72;;;1.53;100.00
16016;BME280;8112;53.592;10.184;2024-01-11T13:14:41;102828.84;;;1.51;100.00
16016;BME280;8112;53.592;10.184;2024-01-11T13:19:44;102820.22;;;1.55;100.00
16016;BME280;8112;53.592;10.184;2024-01-11T13:24:46;102811.53;;;1.55;100.00
16016;BME280;8112;53.592;10.184;2024-01-11T13:29:48;102814.97;;;1.49;100.00
16016;BME280;8112;53.592;10.184;2024-01-11T13:34:51;102813.28;;;1.54;100.00
16016;BME280;8112;53.592;10.184;2024-01-11T13:39:53;102827.09;;;1.50;100.00
16016;BME280;8112;53.592;10.184;2024-01-11T13:44:55;102830.75;;;1.65;100.00
16016;BME280;8112;53.592;10.184;2024-01-11T13:49:58;102831.56;;;1.62;100.00
16016;BME280;8112;53.592;10.184;2024-01-11T13:55:00;102824.72;;;1.69;100.00
16016;BME280;8112;53.592;10.184;2024-01-11T14:00:02;102813.34;;;1.59;100.00
16016;BME280;8112;53.592;10.184;2024-01-11T14:05:07;102796.03;;;1.61;100.00
16016;BME280;8112;53.592;10.184;2024-01-11T14:10:12;102817.66;;;1.59;100.00
16016;BME280;8112;53.592;10.184;2024-01-11T14:15:14;102817.69;;;1.62;100.00
16016;BME280;8112;53.592;10.184;2024-01-11T14:20:17;102828.22;;;1.71;100.00
16016;BME280;8112;53.592;10.184;2024-01-11T14:25:20;102840.22;;;1.63;100.00
16016;BME280;8112;53.592;10.184;2024-01-11T14:30:22;102840.97;;;1.52;100.00
16016;BME280;8112;53.592;10.184;2024-01-11T14:35:25;102841.06;;;1.59;100.00
16016;BME280;8112;53.592;10.184;2024-01-11T14:40:27;102850.53;;;1.53;100.00
16016;BME280;8112;53.592;10.184;2024-01-11T14:45:28;102855.66;;;1.49;100.00
16016;BME280;8112;53.592;10.184;2024-01-11T14:50:31;102847.00;;;1.48;100.00
16016;BME280;8112;53.592;10.184;2024-01-11T14:55:35;102843.47;;;1.46;100.00
16016;BME280;8112;53.592;10.184;2024-01-11T15:00:37;102845.19;;;1.42;100.00
16016;BME280;8112;53.592;10.184;2024-01-11T15:05:40;102850.28;;;1.35;100.00
16016;BME280;8112;53.592;10.184;2024-01-11T15:10:41;102865.88;;;1.36;100.00
16016;BME280;8112;53.592;10.184;2024-01-11T15:15:43;102871.19;;;1.44;100.00
16016;BME280;8112;53.592;10.184;2024-01-11T15:20:46;102883.19;;;1.36;100.00
16016;BME280;8112;53.592;10.184;2024-01-11T15:25:48;102875.41;;;1.36;100.00
16016;BME280;8112;53.592;10.184;2024-01-11T15:30:50;102892.59;;;1.27;100.00
16016;BME280;8112;53.592;10.184;2024-01-11T15:35:53;102896.97;;;1.30;100.00
16016;BME280;8112;53.592;10.184;2024-01-11T15:40:55;102899.59;;;1.33;100.00
16016;BME280;8112;53.592;10.184;2024-01-11T15:45:57;102907.44;;;1.35;100.00
16016;BME280;8112;53.592;10.184;2024-01-11T15:51:00;102915.22;;;1.35;100.00
16016;BME280;8112;53.592;10.184;2024-01-11T15:56:02;102888.25;;;1.26;100.00
16016;BME280;8112;53.592;10.184;2024-01-11T16:01:04;102896.00;;;1.23;100.00
16016;BME280;8112;53.592;10.184;2024-01-11T16:06:07;102904.72;;;1.27;100.00
16016;BME280;8112;53.592;10.184;2024-01-11T16:11:09;102901.13;;;1.19;100.00
16016;BME280;8112;53.592;10.184;2024-01-11T16:16:11;102907.13;;;1.13;100.00
16016;BME280;8112;53.592;10.184;2024-01-11T16:21:14;102904.28;;;0.99;100.00
16016;BME280;8112;53.592;10.184;2024-01-11T16:26:16;102898.19;;;0.95;100.00
16016;BME280;8112;53.592;10.184;2024-01-11T16:31:18;102896.28;;;0.85;100.00
16016;BME280;8112;53.592;10.184;2024-01-11T16:36:21;102907.16;;;0.64;100.00
16016;BME280;8112;53.592;10.184;2024-01-11T16:41:23;102896.69;;;0.57;100.00
16016;BME280;8112;53.592;10.184;2024-01-11T16:46:25;102880.97;;;0.48;100.00
16016;BME280;8112;53.592;10.184;2024-01-11T16:51:28;102876.47;;;0.39;100.00
16016;BME280;8112;53.592;10.184;2024-01-11T16:56:30;102882.22;;;0.23;100.00
16016;BME280;8112;53.592;10.184;2024-01-11T17:01:32;102892.41;;;0.12;100.00
16016;BME280;8112;53.592;10.184;2024-01-11T17:06:35;102884.56;;;0.10;100.00
16016;BME280;8112;53.592;10.184;2024-01-11T17:11:38;102893.88;;;0.01;100.00
16016;BME280;8112;53.592;10.184;2024-01-11T17:16:40;102896.25;;;-0.10;100.00
16016;BME280;8112;53.592;10.184;2024-01-11T17:21:44;102896.88;;;-0.22;100.00
16016;BME280;8112;53.592;10.184;2024-01-11T17:26:45;102907.16;;;-0.27;100.00
16016;BME280;8112;53.592;10.184;2024-01-11T17:31:47;102909.56;;;-0.36;100.00
16016;BME280;8112;53.592;10.184;2024-01-11T17:36:50;102918.09;;;-0.40;100.00
16016;BME280;8112;53.592;10.184;2024-01-11T17:41:52;102915.25;;;-0.51;100.00
16016;BME280;8112;53.592;10.184;2024-01-11T17:46:53;102915.13;;;-0.58;100.00
16016;BME280;8112;53.592;10.184;2024-01-11T17:51:56;102917.66;;;-0.59;100.00
16016;BME280;8112;53.592;10.184;2024-01-11T17:56:58;102920.31;;;-0.58;100.00
16016;BME280;8112;53.592;10.184;2024-01-11T18:02:00;102916.31;;;-0.43;100.00
16016;BME280;8112;53.592;10.184;2024-01-11T18:07:04;102919.59;;;-0.52;100.00
16016;BME280;8112;53.592;10.184;2024-01-11T18:12:06;102923.88;;;-0.52;100.00
16016;BME280;8112;53.592;10.184;2024-01-11T18:17:08;102928.97;;;-0.55;100.00
16016;BME280;8112;53.592;10.184;2024-01-11T18:22:11;102944.53;;;-0.55;100.00
16016;BME280;8112;53.592;10.184;2024-01-11T18:27:13;102939.22;;;-0.62;100.00
16016;BME280;8112;53.592;10.184;2024-01-11T18:32:14;102952.25;;;-0.57;100.00
16016;BME280;8112;53.592;10.184;2024-01-11T18:37:17;102946.16;;;-0.59;100.00
16016;BME280;8112;53.592;10.184;2024-01-11T18:42:24;102956.47;;;-0.62;100.00
16016;BME280;8112;53.592;10.184;2024-01-11T18:47:26;102955.47;;;-0.67;100.00
16016;BME280;8112;53.592;10.184;2024-01-11T18:52:29;102955.53;;;-0.64;100.00
16016;BME280;8112;53.592;10.184;2024-01-11T18:57:31;102969.34;;;-0.65;100.00
16016;BME280;8112;53.592;10.184;2024-01-11T19:02:33;102962.16;;;-0.76;100.00
16016;BME280;8112;53.592;10.184;2024-01-11T19:07:36;102967.22;;;-0.82;100.00
16016;BME280;8112;53.592;10.184;2024-01-11T19:12:37;102954.16;;;-0.87;100.00
16016;BME280;8112;53.592;10.184;2024-01-11T19:17:39;102954.19;;;-0.85;100.00
16016;BME280;8112;53.592;10.184;2024-01-11T19:22:42;102963.78;;;-0.81;100.00
16016;BME280;8112;53.592;10.184;2024-01-11T19:27:44;102957.03;;;-0.74;100.00
16016;BME280;8112;53.592;10.184;2024-01-11T19:32:45;102959.03;;;-0.62;100.00
16016;BME280;8112;53.592;10.184;2024-01-11T19:37:48;102976.34;;;-0.61;100.00
16016;BME280;8112;53.592;10.184;2024-01-11T19:42:50;102972.13;;;-0.58;100.00
16016;BME280;8112;53.592;10.184;2024-01-11T19:47:52;102992.13;;;-0.52;100.00
16016;BME280;8112;53.592;10.184;2024-01-11T19:52:55;102983.31;;;-0.59;100.00
16016;BME280;8112;53.592;10.184;2024-01-11T19:57:57;102977.06;;;-0.67;100.00
16016;BME280;8112;53.592;10.184;2024-01-11T20:02:58;102990.06;;;-0.65;100.00
16016;BME280;8112;53.592;10.184;2024-01-11T20:08:01;102982.22;;;-0.67;100.00
16016;BME280;8112;53.592;10.184;2024-01-11T20:13:04;102999.47;;;-0.69;100.00
16016;BME280;8112;53.592;10.184;2024-01-11T20:18:06;103000.03;;;-0.81;100.00
16016;BME280;8112;53.592;10.184;2024-01-11T20:23:10;102999.13;;;-0.83;100.00
16016;BME280;8112;53.592;10.184;2024-01-11T20:28:11;102996.53;;;-0.83;100.00
16016;BME280;8112;53.592;10.184;2024-01-11T20:33:13;103005.84;;;-0.90;100.00
16016;BME280;8112;53.592;10.184;2024-01-11T20:38:16;103002.28;;;-0.95;100.00
16016;BME280;8112;53.592;10.184;2024-01-11T20:43:19;103003.06;;;-0.97;100.00
16016;BME280;8112;53.592;10.184;2024-01-11T20:48:21;102992.38;;;-1.10;100.00
16016;BME280;8112;53.592;10.184;2024-01-11T20:53:24;102993.97;;;-1.15;100.00
16016;BME280;8112;53.592;10.184;2024-01-11T20:58:25;102993.97;;;-1.17;100.00
16016;BME280;8112;53.592;10.184;2024-01-11T21:03:27;103001.81;;;-1.12;100.00
16016;BME280;8112;53.592;10.184;2024-01-11T21:08:30;102999.22;;;-1.13;100.00
16016;BME280;8112;53.592;10.184;2024-01-11T21:13:32;102996.38;;;-1.23;100.00
16016;BME280;8112;53.592;10.184;2024-01-11T21:18:33;102988.81;;;-1.15;100.00
16016;BME280;8112;53.592;10.184;2024-01-11T21:23:37;103005.09;;;-1.19;100.00
16016;BME280;8112;53.592;10.184;2024-01-11T21:28:38;103007.53;;;-1.25;100.00
16016;BME280;8112;53.592;10.184;2024-01-11T21:33:42;103009.41;;;-1.50;100.00
16016;BME280;8112;53.592;10.184;2024-01-11T21:38:45;103002.34;;;-1.56;100.00
16016;BME280;8112;53.592;10.184;2024-01-11T21:43:47;103008.41;;;-1.55;100.00
16016;BME280;8112;53.592;10.184;2024-01-11T21:48:48;103014.38;;;-1.58;100.00
16016;BME280;8112;53.592;10.184;2024-01-11T21:53:52;103012.41;;;-1.67;100.00
16016;BME280;8112;53.592;10.184;2024-01-11T21:58:57;103014.91;;;-1.70;100.00
16016;BME280;8112;53.592;10.184;2024-01-11T22:03:59;103017.53;;;-1.68;100.00
16016;BME280;8112;53.592;10.184;2024-01-11T22:09:02;103008.56;;;-1.81;100.00
16016;BME280;8112;53.592;10.184;2024-01-11T22:14:05;103007.34;;;-1.93;100.00
16016;BME280;8112;53.592;10.184;2024-01-11T22:19:07;103006.25;;;-2.01;100.00
16016;BME280;8112;53.592;10.184;2024-01-11T22:24:10;103013.19;;;-2.00;100.00
16016;BME280;8112;53.592;10.184;2024-01-11T22:29:12;103009.00;;;-1.95;100.00
16016;BME280;8112;53.592;10.184;2024-01-11T22:34:13;102996.94;;;-1.96;100.00
16016;BME280;8112;53.592;10.184;2024-01-11T22:39:17;102996.03;;;-1.96;100.00
16016;BME280;8112;53.592;10.184;2024-01-11T22:44:18;102988.38;;;-1.93;100.00
16016;BME280;8112;53.592;10.184;2024-01-11T22:49:20;102989.34;;;-1.90;100.00
16016;BME280;8112;53.592;10.184;2024-01-11T22:54:23;102993.59;;;-1.92;100.00
16016;BME280;8112;53.592;10.184;2024-01-11T22:59:27;102991.09;;;-1.89;100.00
16016;BME280;8112;53.592;10.184;2024-01-11T23:04:29;102990.00;;;-1.97;100.00
16016;BME280;8112;53.592;10.184;2024-01-11T23:09:32;102999.44;;;-1.97;100.00
16016;BME280;8112;53.592;10.184;2024-01-11T23:14:34;102988.63;;;-2.15;100.00
16016;BME280;8112;53.592;10.184;2024-01-11T23:19:36;102994.28;;;-2.26;100.00
16016;BME280;8112;53.592;10.184;2024-01-11T23:24:39;102984.63;;;-2.32;100.00
16016;BME280;8112;53.592;10.184;2024-01-11T23:29:40;102983.16;;;-2.24;100.00
16016;BME280;8112;53.592;10.184;2024-01-11T23:34:42;102973.38;;;-2.34;100.00
16016;BME280;8112;53.592;10.184;2024-01-11T23:39:45;102981.84;;;-2.38;100.00
16016;BME280;8112;53.592;10.184;2024-01-11T23:44:47;102988.66;;;-2.40;100.00
16016;BME280;8112;53.592;10.184;2024-01-11T23:49:49;102986.63;;;-2.23;100.00
16016;BME280;8112;53.592;10.184;2024-01-11T23:54:52;102989.72;;;-2.06;100.00
16016;BME280;8112;53.592;10.184;2024-01-11T23:59:54;102985.47;;;-2.04;100.00
